Time;durP1;ratioP1;P1;durP2;ratioP2;P2;SDS_P1;SDS_P2;PMS_P1;PMS_P2;Temp;Humidity;BMP_temperature;BMP_pressure;BME280_temperature;BME280_humidity;BME280_pressure;Samples;Min_cycle;Max_cycle;Signal;HPM_P1;HPM_P2
2023/11/21 00:02:20;;;;;;;6.70;2.90;;;6.90;99.90;;;;;;6204299;23;20021;-75
2023/11/21 00:04:46;;;;;;;9.05;3.33;;;6.90;99.90;;;;;;6205572;23;20066;-76
2023/11/21 00:07:12;;;;;;;5.13;2.53;;;6.80;99.90;;;;;;6204807;23;20017;-75
2023/11/21 00:09:38;;;;;;;8.60;2.33;;;6.80;99.90;;;;;;6206175;23;20001;-77
2023/11/21 00:12:04;;;;;;;4.43;2.13;;;6.80;99.90;;;;;;6204480;23;20057;-76
2023/11/21 00:14:30;;;;;;;4.63;2.58;;;6.70;99.90;;;;;;6207963;23;19997;-75
2023/11/21 00:16:55;;;;;;;3.90;1.70;;;6.70;99.90;;;;;;6207853;23;20011;-76
2023/11/21 00:19:21;;;;;;;3.45;1.52;;;6.70;99.90;;;;;;6182191;23;20068;-75
2023/11/21 00:21:46;;;;;;;5.03;1.92;;;6.60;99.90;;;;;;6182706;23;20020;-76
2023/11/21 00:24:13;;;;;;;6.18;2.60;;;6.60;99.90;;;;;;6206465;23;20015;-77
2023/11/21 00:26:40;;;;;;;8.82;2.50;;;6.60;99.90;;;;;;6208106;23;20077;-77
2023/11/21 00:29:08;;;;;;;6.30;2.33;;;6.60;99.90;;;;;;6207075;23;20073;-75
2023/11/21 00:31:38;;;;;;;15.02;3.80;;;6.60;99.90;;;;;;6207827;23;20027;-76
2023/11/21 00:34:05;;;;;;;11.43;2.28;;;6.60;99.90;;;;;;6206801;23;20033;-76
2023/11/21 00:36:34;;;;;;;12.20;2.80;;;6.60;99.90;;;;;;6207095;23;20013;-76
2023/11/21 00:38:59;;;;;;;9.23;2.47;;;6.60;99.90;;;;;;6184346;23;20112;-76
2023/11/21 00:41:28;;;;;;;12.90;2.20;;;6.70;99.90;;;;;;6206623;23;20340;-79
2023/11/21 00:43:54;;;;;;;6.95;2.58;;;6.70;99.90;;;;;;6208184;23;20644;-76
2023/11/21 00:46:21;;;;;;;17.70;2.80;;;6.70;99.90;;;;;;6207118;23;20017;-76
2023/11/21 00:48:46;;;;;;;4.28;1.90;;;6.70;99.90;;;;;;6182416;23;20013;-77
2023/11/21 00:51:12;;;;;;;7.82;2.47;;;6.70;99.90;;;;;;6205958;23;20021;-76
2023/11/21 00:53:37;;;;;;;6.53;2.35;;;6.70;99.90;;;;;;6208931;23;20526;-76
2023/11/21 00:56:03;;;;;;;6.45;2.70;;;6.70;99.90;;;;;;6206640;23;20474;-75
2023/11/21 00:58:30;;;;;;;4.25;2.20;;;6.60;99.90;;;;;;6184083;23;20017;-78
2023/11/21 01:00:55;;;;;;;7.55;3.20;;;6.70;99.90;;;;;;6207971;23;20285;-76
2023/11/21 01:03:21;;;;;;;5.70;2.40;;;6.60;99.90;;;;;;6205933;23;20021;-75
2023/11/21 01:05:49;;;;;;;11.07;2.45;;;6.60;99.90;;;;;;6207675;23;20008;-78
2023/11/21 01:08:15;;;;;;;5.45;3.20;;;6.60;99.90;;;;;;6206247;23;20503;-75
2023/11/21 01:10:40;;;;;;;7.70;2.80;;;6.70;99.90;;;;;;6184250;23;20044;-75
2023/11/21 01:13:07;;;;;;;8.30;2.67;;;6.60;99.90;;;;;;6183325;23;20092;-74
2023/11/21 01:15:33;;;;;;;8.02;3.17;;;6.70;99.90;;;;;;6207440;23;20016;-76
2023/11/21 01:17:59;;;;;;;7.50;2.67;;;6.70;99.90;;;;;;6206909;23;20443;-77
2023/11/21 01:20:24;;;;;;;6.55;2.65;;;6.70;99.90;;;;;;6206309;23;20013;-75
2023/11/21 01:22:50;;;;;;;5.47;2.60;;;6.70;99.90;;;;;;6208163;23;20451;-76
2023/11/21 01:25:16;;;;;;;8.43;2.75;;;6.70;99.90;;;;;;6206035;23;20013;-75
2023/11/21 01:27:42;;;;;;;8.50;2.22;;;6.70;99.90;;;;;;6206965;23;20013;-77
2023/11/21 01:30:10;;;;;;;4.93;2.58;;;6.70;99.90;;;;;;6182808;23;20059;-77
2023/11/21 01:32:36;;;;;;;3.80;2.38;;;6.70;99.90;;;;;;6207738;23;20036;-76
2023/11/21 01:35:02;;;;;;;5.55;2.38;;;6.70;99.90;;;;;;6205965;23;20020;-77
2023/11/21 01:37:28;;;;;;;5.88;2.42;;;6.70;99.90;;;;;;6206600;23;20020;-76
2023/11/21 01:39:54;;;;;;;10.48;3.75;;;6.80;99.90;;;;;;6184225;23;20017;-75
2023/11/21 01:42:21;;;;;;;4.97;2.58;;;6.80;99.90;;;;;;6206330;23;20387;-75
2023/11/21 01:44:46;;;;;;;5.55;2.70;;;7.00;99.90;;;;;;6207547;23;20379;-76
2023/11/21 01:47:13;;;;;;;6.03;2.55;;;6.90;99.90;;;;;;6182053;23;20088;-76
2023/11/21 01:49:39;;;;;;;12.77;3.05;;;7.00;99.90;;;;;;6207015;23;20439;-75
2023/11/21 01:52:06;;;;;;;4.72;2.65;;;7.00;99.90;;;;;;6205749;23;20008;-75
2023/11/21 01:54:32;;;;;;;5.53;3.05;;;7.10;99.90;;;;;;6207837;23;20108;-75
2023/11/21 01:57:02;;;;;;;5.85;2.80;;;7.20;99.90;;;;;;6207279;23;20005;-77
2023/11/21 01:59:33;;;;;;;8.25;2.33;;;7.20;99.90;;;;;;6181819;23;20005;-74
2023/11/21 02:01:59;;;;;;;9.02;2.58;;;7.20;99.90;;;;;;6208338;23;20009;-75
2023/11/21 02:04:25;;;;;;;5.85;2.88;;;7.30;99.90;;;;;;6206652;23;20052;-75
2023/11/21 02:06:51;;;;;;;6.03;2.78;;;7.30;99.90;;;;;;6207492;23;20351;-79
2023/11/21 02:09:17;;;;;;;9.95;3.33;;;7.30;99.90;;;;;;6206862;23;20021;-77
2023/11/21 02:11:43;;;;;;;7.38;2.63;;;7.40;99.90;;;;;;6207960;23;20012;-75
2023/11/21 02:14:09;;;;;;;8.30;2.65;;;7.40;99.90;;;;;;6207534;23;20005;-74
2023/11/21 02:16:36;;;;;;;8.80;2.47;;;7.40;99.90;;;;;;6207478;23;20015;-74
2023/11/21 02:19:05;;;;;;;7.63;2.65;;;7.50;99.90;;;;;;6207482;23;20036;-77
2023/11/21 02:21:30;;;;;;;7.13;3.03;;;7.50;99.90;;;;;;6184545;23;20001;-75
2023/11/21 02:23:56;;;;;;;5.03;2.50;;;7.50;99.90;;;;;;6184387;23;20012;-77
2023/11/21 02:26:22;;;;;;;6.60;2.63;;;7.60;99.90;;;;;;6205329;23;20021;-75
2023/11/21 02:28:47;;;;;;;6.22;2.97;;;7.60;99.90;;;;;;6207144;23;20025;-75
2023/11/21 02:31:13;;;;;;;5.22;2.20;;;7.60;99.90;;;;;;6206527;23;20107;-77
2023/11/21 02:33:38;;;;;;;7.22;2.53;;;7.60;99.90;;;;;;6207883;23;20443;-75
2023/11/21 02:36:05;;;;;;;7.70;2.55;;;7.60;99.90;;;;;;6205412;23;20013;-75
2023/11/21 02:38:31;;;;;;;5.43;2.25;;;7.70;99.90;;;;;;6207129;23;20327;-76
2023/11/21 02:40:59;;;;;;;6.32;2.83;;;7.80;99.90;;;;;;6207427;23;20067;-75
2023/11/21 02:43:24;;;;;;;5.38;2.47;;;7.70;99.90;;;;;;6205776;23;20005;-76
2023/11/21 02:45:50;;;;;;;6.63;2.05;;;7.70;99.90;;;;;;6206732;23;20009;-76
2023/11/21 02:48:15;;;;;;;5.47;2.42;;;7.70;99.90;;;;;;6205305;23;20024;-76
2023/11/21 02:50:42;;;;;;;4.72;2.30;;;7.80;99.90;;;;;;6184200;23;20020;-75
2023/11/21 02:53:10;;;;;;;4.07;1.92;;;7.80;99.90;;;;;;6181999;23;20025;-76
2023/11/21 02:55:36;;;;;;;8.32;2.08;;;7.80;99.90;;;;;;6207452;23;20348;-75
2023/11/21 02:58:03;;;;;;;7.25;2.45;;;7.80;99.90;;;;;;6205418;23;20021;-76
2023/11/21 03:00:29;;;;;;;6.63;2.30;;;7.80;99.90;;;;;;6207184;23;20012;-76
2023/11/21 03:02:56;;;;;;;4.55;2.20;;;7.80;99.90;;;;;;6207396;23;20446;-77
2023/11/21 03:05:21;;;;;;;7.07;2.13;;;7.80;99.90;;;;;;6205566;23;22039;-74
2023/11/21 03:07:47;;;;;;;4.97;2.03;;;7.80;99.90;;;;;;6207162;23;20519;-77
2023/11/21 03:10:12;;;;;;;9.75;2.13;;;7.80;99.90;;;;;;6205394;23;20101;-76
2023/11/21 03:12:39;;;;;;;4.45;2.65;;;7.80;99.90;;;;;;6206840;23;20021;-75
2023/11/21 03:15:08;;;;;;;5.85;2.15;;;7.80;99.90;;;;;;6181970;23;20009;-76
2023/11/21 03:17:34;;;;;;;5.28;2.05;;;7.80;99.90;;;;;;6206258;23;20068;-76
2023/11/21 03:20:03;;;;;;;6.82;2.45;;;7.80;99.90;;;;;;6182938;23;20059;-75
2023/11/21 03:22:29;;;;;;;6.60;2.60;;;7.90;99.90;;;;;;6206561;23;20115;-76
2023/11/21 03:24:55;;;;;;;9.43;3.40;;;7.90;99.90;;;;;;6206471;23;20005;-75
2023/11/21 03:27:20;;;;;;;10.02;2.55;;;7.90;99.90;;;;;;6181324;23;20526;-74
2023/11/21 03:29:46;;;;;;;7.60;2.60;;;7.90;99.90;;;;;;6206934;23;20033;-76
2023/11/21 03:32:12;;;;;;;7.18;3.13;;;7.90;99.90;;;;;;6204948;23;20013;-75
2023/11/21 03:34:56;;;;;;;5.95;2.65;;;7.90;99.90;;;;;;6180724;23;20343;-75
2023/11/21 03:37:22;;;;;;;8.50;2.97;;;7.90;99.90;;;;;;6205036;23;20031;-76
2023/11/21 03:39:48;;;;;;;8.30;3.30;;;7.90;99.90;;;;;;6205922;23;20009;-76
2023/11/21 03:42:13;;;;;;;7.28;3.00;;;8.00;99.90;;;;;;6204241;23;20044;-77
2023/11/21 03:44:39;;;;;;;15.43;3.85;;;7.90;99.90;;;;;;6206763;23;20009;-75
2023/11/21 03:47:05;;;;;;;7.25;3.47;;;8.00;99.90;;;;;;6204048;23;20085;-75
2023/11/21 03:49:30;;;;;;;8.48;2.83;;;8.00;99.90;;;;;;6205812;23;20432;-75
2023/11/21 03:51:56;;;;;;;12.43;3.05;;;8.00;99.90;;;;;;6206332;23;20012;-75
2023/11/21 03:54:22;;;;;;;10.18;3.03;;;8.00;99.90;;;;;;6205674;23;20017;-75
2023/11/21 03:56:47;;;;;;;8.10;2.80;;;8.10;99.90;;;;;;6206935;23;20017;-73
2023/11/21 03:59:13;;;;;;;12.63;3.85;;;8.10;99.90;;;;;;6204996;23;20351;-75
2023/11/21 04:01:39;;;;;;;8.50;2.40;;;8.10;99.90;;;;;;6183253;23;20008;-75
2023/11/21 04:04:04;;;;;;;11.02;3.20;;;8.10;99.90;;;;;;6181436;23;20005;-77
2023/11/21 04:06:32;;;;;;;6.97;2.80;;;8.10;99.90;;;;;;6183037;23;20044;-77
2023/11/21 04:08:58;;;;;;;9.40;3.20;;;8.10;99.90;;;;;;6180795;23;20009;-76
2023/11/21 04:11:24;;;;;;;7.18;3.30;;;8.10;99.90;;;;;;6204683;23;20011;-77
2023/11/21 04:13:49;;;;;;;12.30;3.92;;;8.10;99.90;;;;;;6183444;23;20020;-75
2023/11/21 04:16:15;;;;;;;10.50;3.97;;;8.20;99.90;;;;;;6204451;23;20010;-76
2023/11/21 04:18:40;;;;;;;10.18;3.90;;;8.20;99.90;;;;;;6205600;23;20016;-76
2023/11/21 04:21:06;;;;;;;11.52;3.28;;;8.20;99.90;;;;;;6205436;23;20067;-76
2023/11/21 04:23:32;;;;;;;13.13;3.30;;;8.20;99.90;;;;;;6180699;23;20013;-75
2023/11/21 04:25:58;;;;;;;11.40;3.35;;;8.20;99.90;;;;;;6204866;23;20012;-75
2023/11/21 04:28:24;;;;;;;13.73;2.75;;;8.30;99.90;;;;;;6204284;23;20373;-75
2023/11/21 04:30:50;;;;;;;10.63;3.88;;;8.30;99.90;;;;;;6206086;23;20017;-75
2023/11/21 04:33:16;;;;;;;12.80;4.32;;;8.30;99.90;;;;;;6205444;23;20545;-76
2023/11/21 04:35:41;;;;;;;12.18;3.88;;;8.30;99.90;;;;;;6206180;23;20079;-76
2023/11/21 04:38:07;;;;;;;11.55;3.42;;;8.30;99.90;;;;;;6204558;23;20013;-76
2023/11/21 04:40:33;;;;;;;10.23;3.35;;;8.40;99.90;;;;;;6205915;23;20391;-76
2023/11/21 04:42:58;;;;;;;11.40;3.90;;;8.40;99.90;;;;;;6205879;23;20020;-75
2023/11/21 04:45:24;;;;;;;15.02;3.72;;;8.40;99.90;;;;;;6179362;23;20343;-75
2023/11/21 04:47:50;;;;;;;14.48;4.75;;;8.40;99.90;;;;;;6182612;23;20005;-75
2023/11/21 04:50:15;;;;;;;12.55;3.58;;;8.50;99.90;;;;;;6180639;23;20024;-73
2023/11/21 04:52:41;;;;;;;10.63;3.33;;;8.50;99.90;;;;;;6183069;23;20036;-76
2023/11/21 04:55:09;;;;;;;13.05;3.53;;;8.60;99.90;;;;;;6204177;23;20013;-76
2023/11/21 04:57:41;;;;;;;9.18;2.95;;;8.60;99.90;;;;;;6182289;23;20013;-76
2023/11/21 05:00:07;;;;;;;11.85;3.85;;;8.60;99.90;;;;;;6205623;23;20394;-77
2023/11/21 05:02:35;;;;;;;14.00;4.15;;;8.60;99.90;;;;;;6182272;23;20005;-79
2023/11/21 05:05:05;;;;;;;14.73;4.07;;;8.60;99.90;;;;;;6207370;23;20009;-77
2023/11/21 05:07:32;;;;;;;10.73;3.57;;;8.60;99.90;;;;;;6181987;23;20009;-75
2023/11/21 05:09:57;;;;;;;14.50;4.35;;;8.60;99.90;;;;;;6208612;23;20040;-77
2023/11/21 05:12:24;;;;;;;12.27;3.85;;;8.60;99.90;;;;;;6206661;23;20013;-75
2023/11/21 05:14:50;;;;;;;12.95;3.45;;;8.60;99.90;;;;;;6207375;23;20009;-76
2023/11/21 05:17:16;;;;;;;20.05;4.22;;;8.60;99.90;;;;;;6205943;23;20021;-76
2023/11/21 05:19:42;;;;;;;11.40;4.53;;;8.60;99.90;;;;;;6205954;23;20076;-75
2023/11/21 05:22:08;;;;;;;12.18;3.40;;;8.60;99.90;;;;;;6203188;23;20012;-76
2023/11/21 05:24:34;;;;;;;14.13;4.13;;;8.70;99.90;;;;;;6180537;23;20005;-74
2023/11/21 05:27:00;;;;;;;24.70;3.60;;;8.60;99.90;;;;;;6205101;23;20031;-75
2023/11/21 05:29:27;;;;;;;13.73;3.85;;;8.60;99.90;;;;;;6204738;23;20013;-74
2023/11/21 05:31:53;;;;;;;10.95;3.20;;;8.60;99.90;;;;;;6182276;23;20039;-74
2023/11/21 05:34:20;;;;;;;12.35;3.67;;;8.60;99.90;;;;;;6181360;23;20017;-74
2023/11/21 05:36:46;;;;;;;5.75;3.05;;;8.70;99.90;;;;;;6180824;23;20001;-76
2023/11/21 05:39:12;;;;;;;12.82;3.03;;;8.70;99.90;;;;;;6179134;23;20461;-74
2023/11/21 05:41:37;;;;;;;13.77;3.78;;;8.70;99.90;;;;;;6180615;23;20601;-74
2023/11/21 05:44:03;;;;;;;11.27;3.67;;;8.70;99.90;;;;;;6204357;23;20017;-76
2023/11/21 05:46:28;;;;;;;10.93;3.17;;;8.70;99.90;;;;;;6205326;23;20024;-75
2023/11/21 05:48:54;;;;;;;15.20;4.20;;;8.70;99.90;;;;;;6205239;23;20016;-74
2023/11/21 05:51:20;;;;;;;9.88;3.55;;;8.80;99.90;;;;;;6180497;23;20059;-75
2023/11/21 05:53:46;;;;;;;20.50;4.70;;;8.80;99.90;;;;;;6179752;23;20471;-74
2023/11/21 05:56:13;;;;;;;15.85;3.80;;;8.90;99.90;;;;;;6203497;23;20024;-76
2023/11/21 05:58:39;;;;;;;10.32;3.33;;;8.90;99.90;;;;;;6180143;23;20016;-76
2023/11/21 06:01:09;;;;;;;17.02;4.18;;;8.90;99.90;;;;;;6205107;23;20351;-76
2023/11/21 06:03:35;;;;;;;11.25;3.40;;;8.90;99.90;;;;;;6206574;23;20016;-76
2023/11/21 06:06:00;;;;;;;12.38;3.83;;;8.90;99.90;;;;;;6175624;23;20071;-76
2023/11/21 06:08:26;;;;;;;13.52;3.72;;;8.90;99.90;;;;;;6201518;23;20021;-75
2023/11/21 06:10:52;;;;;;;10.57;3.42;;;9.00;99.90;;;;;;6202341;23;20563;-73
2023/11/21 06:13:23;;;;;;;10.90;3.88;;;8.90;99.90;;;;;;6176839;23;20020;-74
2023/11/21 06:15:49;;;;;;;16.23;4.13;;;9.00;99.90;;;;;;6201203;23;20668;-75
2023/11/21 06:18:15;;;;;;;12.52;4.28;;;9.00;99.90;;;;;;6177077;23;20027;-74
2023/11/21 06:20:40;;;;;;;11.75;5.13;;;9.10;99.90;;;;;;6178711;23;20008;-75
2023/11/21 06:23:06;;;;;;;12.15;5.28;;;9.10;99.90;;;;;;6177042;23;20015;-75
2023/11/21 06:25:35;;;;;;;14.80;4.85;;;9.20;99.90;;;;;;6178174;23;20005;-75
2023/11/21 06:28:01;;;;;;;11.87;4.90;;;9.20;99.90;;;;;;6201834;23;20119;-75
2023/11/21 06:30:28;;;;;;;19.73;5.53;;;9.20;99.90;;;;;;6201103;23;20829;-75
2023/11/21 06:32:54;;;;;;;12.77;4.65;;;9.20;99.90;;;;;;6202409;23;20463;-75
2023/11/21 06:35:20;;;;;;;11.48;4.55;;;9.20;99.90;;;;;;6176478;23;20024;-75
2023/11/21 06:37:49;;;;;;;13.73;4.78;;;9.10;99.90;;;;;;6201383;23;20005;-76
2023/11/21 06:40:15;;;;;;;15.80;4.25;;;9.10;99.90;;;;;;6201350;23;20024;-73
2023/11/21 06:42:41;;;;;;;16.52;4.75;;;9.10;99.90;;;;;;6202765;23;20340;-73
2023/11/21 06:45:07;;;;;;;11.65;4.40;;;9.10;99.90;;;;;;6201123;23;20009;-75
2023/11/21 06:47:33;;;;;;;17.50;4.78;;;9.10;99.90;;;;;;6178986;23;20005;-74
2023/11/21 06:50:00;;;;;;;12.85;4.97;;;9.10;99.90;;;;;;6202698;23;20020;-73
2023/11/21 06:52:26;;;;;;;15.35;4.65;;;9.20;99.90;;;;;;6176958;23;20009;-75
2023/11/21 06:54:51;;;;;;;14.38;4.50;;;9.20;99.90;;;;;;6202799;23;20001;-74
2023/11/21 06:57:17;;;;;;;15.50;4.72;;;9.20;99.90;;;;;;6200389;23;20067;-73
2023/11/21 06:59:43;;;;;;;10.30;3.90;;;9.20;99.90;;;;;;6203021;23;20005;-76
2023/11/21 07:02:09;;;;;;;12.38;4.75;;;9.30;99.90;;;;;;6201032;23;20028;-74
2023/11/21 07:04:35;;;;;;;13.85;5.30;;;9.30;99.90;;;;;;6203161;23;20005;-75
2023/11/21 07:07:03;;;;;;;14.48;5.10;;;9.30;99.90;;;;;;6201924;23;20009;-74
2023/11/21 07:09:29;;;;;;;14.57;4.78;;;9.30;99.90;;;;;;6178007;23;20016;-74
2023/11/21 07:11:55;;;;;;;11.70;3.83;;;9.40;99.90;;;;;;6202438;23;19997;-74
2023/11/21 07:14:21;;;;;;;9.90;3.17;;;9.40;99.90;;;;;;6200414;23;20037;-72
2023/11/21 07:16:46;;;;;;;8.82;3.45;;;9.40;99.90;;;;;;6201932;23;20335;-76
2023/11/21 07:19:12;;;;;;;9.00;3.80;;;9.40;99.90;;;;;;6200026;23;20111;-74
2023/11/21 07:21:39;;;;;;;5.68;2.58;;;9.50;99.90;;;;;;6177925;23;20028;-75
2023/11/21 07:24:06;;;;;;;9.02;3.05;;;9.50;99.90;;;;;;6201816;23;20405;-75
2023/11/21 07:26:33;;;;;;;9.07;3.10;;;9.50;99.90;;;;;;6202390;23;20001;-74
2023/11/21 07:29:00;;;;;;;12.35;3.03;;;9.50;99.90;;;;;;6202095;23;20024;-74
2023/11/21 07:31:26;;;;;;;8.90;3.17;;;9.50;99.90;;;;;;6201226;23;20058;-74
2023/11/21 07:33:52;;;;;;;9.13;2.90;;;9.50;99.90;;;;;;6202719;23;20092;-75
2023/11/21 07:36:18;;;;;;;9.25;3.60;;;9.60;99.90;;;;;;6175828;23;20009;-75
2023/11/21 07:38:44;;;;;;;6.47;2.50;;;9.60;99.90;;;;;;6202899;23;20021;-75
2023/11/21 07:41:11;;;;;;;10.38;2.85;;;9.70;99.90;;;;;;6177825;23;20031;-75
2023/11/21 07:43:37;;;;;;;8.82;2.67;;;9.70;99.90;;;;;;6177794;23;20481;-74
2023/11/21 07:46:05;;;;;;;8.60;2.90;;;9.70;99.90;;;;;;6179525;23;20017;-77
2023/11/21 07:48:31;;;;;;;9.85;2.95;;;9.70;99.90;;;;;;6179066;23;20017;-74
2023/11/21 07:51:01;;;;;;;8.30;2.10;;;9.70;99.90;;;;;;6202488;23;20013;-76
2023/11/21 07:53:28;;;;;;;8.55;2.75;;;9.80;99.90;;;;;;6201380;23;20005;-74
2023/11/21 07:55:54;;;;;;;7.40;2.30;;;9.80;99.90;;;;;;6200904;23;20522;-75
2023/11/21 07:58:20;;;;;;;10.35;2.60;;;9.90;99.90;;;;;;6200593;23;20100;-75
2023/11/21 08:00:46;;;;;;;11.85;2.72;;;9.90;99.90;;;;;;6203300;23;20767;-74
2023/11/21 08:03:13;;;;;;;7.55;2.53;;;9.90;99.90;;;;;;6201202;23;20084;-76
2023/11/21 08:05:39;;;;;;;11.07;2.42;;;9.90;99.90;;;;;;6201482;23;20032;-75
2023/11/21 08:08:05;;;;;;;10.15;3.00;;;9.90;99.90;;;;;;6200367;23;20009;-76
2023/11/21 08:10:30;;;;;;;5.70;2.47;;;9.90;99.90;;;;;;6181003;23;20024;-74
2023/11/21 08:12:56;;;;;;;6.90;2.85;;;10.00;99.90;;;;;;6179786;23;20105;-74
2023/11/21 08:15:21;;;;;;;10.77;2.70;;;10.00;99.90;;;;;;6201548;23;20080;-75
2023/11/21 08:17:48;;;;;;;7.22;2.85;;;10.10;99.90;;;;;;6179504;23;20020;-75
2023/11/21 08:20:16;;;;;;;9.25;2.85;;;10.10;99.90;;;;;;6202438;23;20017;-75
2023/11/21 08:22:42;;;;;;;7.35;2.97;;;10.20;99.90;;;;;;6202828;23;20036;-76
2023/11/21 08:25:08;;;;;;;9.82;3.13;;;10.20;99.90;;;;;;6176877;23;20009;-73
2023/11/21 08:27:34;;;;;;;9.15;3.60;;;10.30;99.90;;;;;;6202671;23;20017;-75
2023/11/21 08:30:01;;;;;;;8.48;2.67;;;10.20;99.90;;;;;;6202961;23;20012;-75
2023/11/21 08:32:26;;;;;;;7.10;2.72;;;10.20;99.90;;;;;;6179054;23;20617;-75
2023/11/21 08:34:52;;;;;;;8.55;3.00;;;10.20;99.90;;;;;;6204319;23;20013;-74
2023/11/21 08:37:18;;;;;;;6.95;3.00;;;10.30;99.90;;;;;;6202283;23;20013;-75
2023/11/21 08:39:44;;;;;;;7.53;2.50;;;10.20;99.90;;;;;;6203511;23;20088;-74
2023/11/21 08:42:10;;;;;;;7.80;2.80;;;10.30;99.90;;;;;;6202821;23;20119;-76
2023/11/21 08:44:36;;;;;;;8.63;3.13;;;10.30;99.90;;;;;;6205119;23;20029;-74
2023/11/21 08:47:01;;;;;;;7.13;2.85;;;10.30;99.90;;;;;;6204818;23;20005;-75
2023/11/21 08:49:29;;;;;;;12.02;2.97;;;10.30;99.90;;;;;;6180583;23;20040;-74
2023/11/21 08:51:55;;;;;;;8.90;3.20;;;10.30;99.90;;;;;;6204433;23;20009;-74
2023/11/21 08:54:21;;;;;;;11.20;3.28;;;10.30;99.90;;;;;;6178125;23;20013;-74
2023/11/21 08:56:46;;;;;;;6.97;2.60;;;10.30;99.90;;;;;;6203209;23;20040;-73
2023/11/21 08:59:14;;;;;;;7.05;2.50;;;10.30;99.90;;;;;;6202386;23;20030;-74
2023/11/21 09:01:40;;;;;;;7.10;2.67;;;10.40;99.90;;;;;;6178408;23;20009;-76
2023/11/21 09:04:06;;;;;;;6.95;2.80;;;10.50;99.90;;;;;;6201780;23;20001;-75
2023/11/21 09:06:32;;;;;;;5.78;2.08;;;10.40;99.90;;;;;;6202666;23;20016;-74
2023/11/21 09:08:58;;;;;;;7.97;2.33;;;10.50;99.90;;;;;;6179801;23;20019;-75
2023/11/21 09:11:25;;;;;;;4.55;2.38;;;10.40;99.90;;;;;;6203068;23;20013;-73
2023/11/21 09:13:51;;;;;;;7.30;2.25;;;10.40;99.90;;;;;;6204229;23;20019;-75
2023/11/21 09:16:17;;;;;;;4.97;2.03;;;10.40;99.90;;;;;;6202139;23;20040;-74
2023/11/21 09:18:43;;;;;;;5.13;2.00;;;10.30;99.90;;;;;;6178221;23;20027;-76
2023/11/21 09:21:08;;;;;;;4.43;2.00;;;10.30;99.90;;;;;;6201965;23;20041;-76
2023/11/21 09:23:35;;;;;;;5.53;2.25;;;10.30;99.90;;;;;;6203391;23;20012;-75
2023/11/21 09:26:01;;;;;;;4.40;1.88;;;10.30;99.90;;;;;;6204211;23;20075;-75
2023/11/21 09:28:27;;;;;;;3.45;1.60;;;10.30;99.90;;;;;;6178975;23;20021;-74
2023/11/21 09:30:56;;;;;;;9.38;2.28;;;10.30;99.90;;;;;;6205132;23;20036;-75
2023/11/21 09:33:23;;;;;;;4.38;2.13;;;10.30;99.90;;;;;;6178573;23;20036;-73
2023/11/21 09:35:50;;;;;;;3.85;2.05;;;10.20;99.90;;;;;;6206074;23;20013;-77
2023/11/21 09:38:16;;;;;;;4.45;1.83;;;10.30;99.90;;;;;;6202999;23;20460;-76
2023/11/21 09:40:41;;;;;;;6.30;1.65;;;10.20;99.90;;;;;;6204574;23;20013;-75
2023/11/21 09:43:17;;;;;;;4.43;1.90;;;10.20;99.90;;;;;;6179665;23;20608;-75
2023/11/21 09:45:50;;;;;;;4.45;1.77;;;10.30;99.90;;;;;;6204279;23;20507;-75
2023/11/21 09:48:17;;;;;;;6.50;1.80;;;10.30;99.90;;;;;;6202201;23;20023;-74
2023/11/21 09:50:43;;;;;;;7.07;2.03;;;10.30;99.90;;;;;;6204823;23;20009;-75
2023/11/21 09:53:17;;;;;;;3.72;1.58;;;10.20;99.90;;;;;;6202472;23;20024;-75
2023/11/21 09:55:46;;;;;;;7.25;2.45;;;10.30;99.90;;;;;;6202220;23;20013;-74
2023/11/21 09:58:13;;;;;;;7.47;2.80;;;10.30;99.90;;;;;;6201144;23;20013;-76
2023/11/21 10:00:44;;;;;;;5.78;2.78;;;10.30;99.90;;;;;;6181835;23;20115;-74
2023/11/21 10:03:10;;;;;;;13.70;2.50;;;10.30;99.90;;;;;;6202334;23;20019;-74
2023/11/21 10:05:36;;;;;;;6.50;2.30;;;10.30;99.90;;;;;;6202840;23;20009;-74
2023/11/21 10:08:06;;;;;;;8.65;3.42;;;10.30;99.90;;;;;;6199641;23;20001;-74
2023/11/21 10:10:33;;;;;;;6.28;2.20;;;10.30;99.90;;;;;;6177278;23;20093;-75
2023/11/21 10:13:02;;;;;;;5.50;2.00;;;10.30;99.90;;;;;;6202758;23;20005;-75
2023/11/21 10:15:30;;;;;;;5.40;2.28;;;10.40;99.90;;;;;;6201991;23;20013;-74
2023/11/21 10:17:56;;;;;;;6.07;1.80;;;10.30;99.90;;;;;;6179955;23;20088;-75
2023/11/21 10:20:24;;;;;;;4.15;1.58;;;10.30;99.90;;;;;;6177961;23;20478;-78
2023/11/21 10:22:50;;;;;;;5.40;2.42;;;10.40;99.90;;;;;;6177737;23;20072;-75
2023/11/21 10:25:16;;;;;;;4.20;2.00;;;10.30;99.90;;;;;;6197728;23;20510;-76
2023/11/21 10:27:42;;;;;;;4.32;1.85;;;10.40;99.90;;;;;;6200337;23;20095;-76
2023/11/21 10:30:11;;;;;;;4.38;1.77;;;10.40;99.90;;;;;;6198122;23;20025;-74
2023/11/21 10:32:41;;;;;;;5.07;1.52;;;10.40;99.90;;;;;;6201208;23;20016;-74
2023/11/21 10:35:10;;;;;;;6.80;1.95;;;10.40;99.90;;;;;;6178048;23;20020;-76
2023/11/21 10:37:39;;;;;;;6.25;2.13;;;10.40;99.90;;;;;;6201416;23;20027;-74
2023/11/21 10:40:07;;;;;;;5.38;1.70;;;10.40;99.90;;;;;;6200172;23;20001;-75
2023/11/21 10:42:33;;;;;;;4.82;1.48;;;10.40;99.90;;;;;;6200542;23;20009;-75
2023/11/21 10:45:00;;;;;;;4.65;1.08;;;10.40;99.90;;;;;;6201510;23;20016;-75
2023/11/21 10:47:26;;;;;;;3.70;1.42;;;10.30;99.90;;;;;;6173906;23;20464;-74
2023/11/21 10:49:55;;;;;;;4.18;1.73;;;10.40;99.90;;;;;;6175637;23;20009;-75
2023/11/21 10:52:21;;;;;;;3.78;1.17;;;10.40;99.90;;;;;;6199359;23;20009;-77
2023/11/21 10:54:47;;;;;;;5.40;1.63;;;10.30;99.90;;;;;;6176302;23;20015;-74
2023/11/21 10:57:17;;;;;;;4.55;1.67;;;10.40;99.90;;;;;;6198941;23;20416;-76
2023/11/21 10:59:47;;;;;;;5.53;1.77;;;10.30;99.90;;;;;;6200551;23;20028;-74
2023/11/21 11:02:25;;;;;;;6.22;2.22;;;10.40;99.90;;;;;;6176241;23;20116;-74
2023/11/21 11:04:52;;;;;;;5.13;1.63;;;10.30;99.90;;;;;;6201198;23;20043;-74
2023/11/21 11:07:19;;;;;;;5.40;2.33;;;10.40;99.90;;;;;;6198270;23;20059;-76
2023/11/21 11:09:47;;;;;;;7.70;2.47;;;10.40;99.90;;;;;;6200837;23;20005;-75
2023/11/21 11:12:14;;;;;;;4.10;1.92;;;10.40;99.90;;;;;;6199362;23;20226;-75
2023/11/21 11:14:41;;;;;;;10.10;3.20;;;10.40;99.90;;;;;;6177267;23;20009;-74
2023/11/21 11:17:08;;;;;;;5.97;2.47;;;10.40;99.90;;;;;;6175846;23;20067;-76
2023/11/21 11:19:35;;;;;;;7.40;2.80;;;10.40;99.90;;;;;;6202340;23;20403;-76
2023/11/21 11:22:28;;;;;;;9.00;2.92;;;10.40;99.90;;;;;;6202567;23;20040;-74
2023/11/21 11:25:17;;;;;;;5.65;2.38;;;10.50;99.90;;;;;;6176944;23;20005;-77
2023/11/21 11:28:11;;;;;;;7.45;2.38;;;10.40;99.90;;;;;;6177287;23;20024;-73
2023/11/21 11:30:55;;;;;;;7.47;2.65;;;10.40;99.90;;;;;;6178589;23;20043;-75
2023/11/21 11:33:33;;;;;;;6.97;3.00;;;10.40;99.90;;;;;;6201493;23;20333;-75
2023/11/21 11:36:11;;;;;;;5.90;2.38;;;10.40;99.90;;;;;;6203206;23;20415;-75
2023/11/21 11:38:36;;;;;;;6.82;2.90;;;10.40;99.90;;;;;;6176880;23;20024;-73
2023/11/21 11:41:04;;;;;;;6.60;2.67;;;10.30;99.90;;;;;;6202399;23;20008;-75
2023/11/21 11:43:32;;;;;;;7.63;3.28;;;10.30;99.90;;;;;;6177354;23;20436;-77
2023/11/21 11:45:59;;;;;;;7.25;2.90;;;10.30;99.90;;;;;;6203763;23;20009;-77
2023/11/21 11:48:25;;;;;;;9.98;3.58;;;10.30;99.90;;;;;;6179726;23;20017;-76
2023/11/21 11:51:20;;;;;;;8.90;3.83;;;10.30;99.90;;;;;;6203315;23;20013;-74
2023/11/21 11:53:49;;;;;;;8.00;3.33;;;10.40;99.90;;;;;;6177691;23;20096;-75
2023/11/21 11:56:25;;;;;;;9.88;4.45;;;10.40;99.90;;;;;;6199914;23;20037;-75
2023/11/21 11:58:52;;;;;;;16.73;4.40;;;10.40;99.90;;;;;;6202500;23;20325;-74
2023/11/21 12:01:21;;;;;;;16.77;4.90;;;10.50;99.90;;;;;;6179438;23;20016;-75
2023/11/21 12:04:20;;;;;;;13.40;4.18;;;10.50;99.90;;;;;;6201944;23;20017;-75
2023/11/21 12:06:46;;;;;;;13.48;4.22;;;10.50;99.90;;;;;;6200432;23;20084;-73
2023/11/21 12:09:22;;;;;;;11.93;4.35;;;10.50;99.90;;;;;;6201801;23;20390;-75
2023/11/21 12:11:51;;;;;;;10.05;3.58;;;10.50;99.90;;;;;;6181852;23;20005;-75
2023/11/21 12:14:17;;;;;;;8.48;3.97;;;10.50;99.90;;;;;;6204214;23;20013;-77
2023/11/21 12:16:43;;;;;;;9.75;3.75;;;10.50;99.90;;;;;;6204982;23;20067;-76
2023/11/21 12:19:12;;;;;;;7.55;3.28;;;10.50;99.90;;;;;;6203436;23;20324;-77
2023/11/21 12:21:40;;;;;;;7.45;3.60;;;10.50;99.90;;;;;;6205027;23;20019;-75
2023/11/21 12:24:08;;;;;;;7.70;3.25;;;10.50;99.90;;;;;;6205851;23;20017;-75
2023/11/21 12:26:36;;;;;;;8.45;2.92;;;10.50;99.90;;;;;;6207276;23;20089;-76
2023/11/21 12:29:04;;;;;;;7.80;3.30;;;10.50;99.90;;;;;;6206797;23;20025;-75
2023/11/21 12:31:30;;;;;;;7.18;2.88;;;10.50;99.90;;;;;;6180622;23;20005;-77
2023/11/21 12:33:56;;;;;;;4.78;2.22;;;10.50;99.90;;;;;;6206376;23;20016;-74
2023/11/21 12:36:22;;;;;;;4.75;2.25;;;10.50;99.90;;;;;;6205462;23;20075;-75
2023/11/21 12:38:47;;;;;;;5.47;2.40;;;10.40;99.90;;;;;;6208129;23;20048;-76
2023/11/21 12:41:15;;;;;;;5.85;2.25;;;10.50;99.90;;;;;;6181899;23;20021;-75
2023/11/21 12:43:41;;;;;;;5.78;2.92;;;10.50;99.90;;;;;;6206808;23;20273;-77
2023/11/21 12:46:09;;;;;;;4.65;2.42;;;10.40;99.90;;;;;;6205658;23;20019;-74
2023/11/21 12:48:39;;;;;;;5.65;2.60;;;10.50;99.90;;;;;;6206511;23;20013;-76
2023/11/21 12:51:06;;;;;;;5.05;2.67;;;10.60;99.90;;;;;;6205368;23;20451;-77